WetterOnline ( https://www.wetteronline.at )

Wetter aktuell Stuttgart

Aktuelles Wetter: Schnarrenberg/Stuttgart (315m)

6-stündlich | Neueste Meldungen
Ortszeit Temperatur Wetter
Do, 02.02. 7:00 6.0° C bedeckt
Do, 02.02. 1:00 6.0° C bedeckt
Mi, 01.02. 19:00 6.0° C bedeckt
Mi, 01.02. 13:00 6.1° C bedeckt
Mi, 01.02. 7:00 4.4° C bedeckt
Mi, 01.02. 1:00 3.7° C bedeckt
Di, 31.01. 19:00 4.6° C bedeckt
Di, 31.01. 13:00 4.5° C bedeckt
Ortszeit Temperatur Wetter
Do, 02.02. 12:00 6.3° C leichter Regen
Do, 02.02. 11:50 6.3° C leichter Regen
Do, 02.02. 11:40 6.4° C leichter Regen
Do, 02.02. 11:30 6.4° C bewölkt
Do, 02.02. 11:20 6.4° C bewölkt
Do, 02.02. 11:10 6.3° C Sprühregen
Do, 02.02. 11:00 6.4° C bewölkt
Do, 02.02. 10:30 6.5° C bewölkt
Do, 02.02. 10:00 6.4° C bedeckt
Do, 02.02. 9:30 6.3° C bewölkt
Do, 02.02. 9:00 6.2° C bedeckt
Ortszeit Relative Feuchte Sichtweite
Do, 02.02. 7:00 76% 50 km
Do, 02.02. 1:00 68% 45 km
Mi, 01.02. 19:00 62% 60 km
Mi, 01.02. 13:00 63% 35 km
Mi, 01.02. 7:00 79% >70 km
Mi, 01.02. 1:00 82% 55 km
Di, 31.01. 19:00 68% 60 km
Di, 31.01. 13:00 67% 50 km
Ortszeit Relative Feuchte Sichtweite
Do, 02.02. 12:00 77% 26 km
Do, 02.02. 11:50 77% -
Do, 02.02. 11:40 76% -
Do, 02.02. 11:30 76% 40 km
Do, 02.02. 11:20 76% -
Do, 02.02. 11:10 77% -
Do, 02.02. 11:00 76% 35 km
Do, 02.02. 10:30 74% 40 km
Do, 02.02. 10:00 74% 60 km
Do, 02.02. 9:30 74% 55 km
Do, 02.02. 9:00 74% 60 km
Ortszeit Niederschlagsmenge Niederschlagsart
Do, 02.02. 7:00 0.1 l/m2 in 12 Std. Regen
Do, 02.02. 1:00 0.1 l/m2 in 6 Std. Regen
Mi, 01.02. 19:00 0.1 l/m2 in 12 Std. Regen
Mi, 01.02. 13:00 0.1 l/m2 in 6 Std. Regen
Mi, 01.02. 7:00 0.1 l/m2 in 12 Std. Regen
Mi, 01.02. 1:00 0.1 l/m2 in 6 Std. Regen
Di, 31.01. 19:00 0.1 l/m2 in 12 Std. Regen
Di, 31.01. 13:00 0.0 l/m2 in 6 Std. -
Ortszeit Niederschlagsmenge Niederschlagsart
Do, 02.02. 12:00 <0.05 l/m2 in 1 Std. Regen
Do, 02.02. 11:50 keine Meldung -
Do, 02.02. 11:40 keine Meldung -
Do, 02.02. 11:30 <0.05 l/m2 in 30 Min Schneeregen
Do, 02.02. 11:20 keine Meldung -
Do, 02.02. 11:10 keine Meldung -
Do, 02.02. 11:00 0.0 l/m2 in 1 Std. -
Do, 02.02. 10:30 0.0 l/m2 in 30 Min -
Do, 02.02. 10:00 <0.05 l/m2 in 1 Std. Regen
Do, 02.02. 9:30 <0.05 l/m2 in 30 Min Schnee
Do, 02.02. 9:00 0.0 l/m2 in 1 Std. -
Ortszeit Stärke Spitze Richtung
km/h Bft. km/h Grad Sektor
Do, 02.02. 7:00 25 4 47 270° W
Do, 02.02. 1:00 17 3 52 270° W
Mi, 01.02. 19:00 22 4 47 260° W
Mi, 01.02. 13:00 18 3 47 270° W
Mi, 01.02. 7:00 13 3 39 220° SW
Mi, 01.02. 1:00 13 3 37 230° SW
Di, 31.01. 19:00 14 3 36 250° W
Di, 31.01. 13:00 11 2 29 270° W
Ortszeit Stärke Spitze Richtung
km/h Bft. km/h Grad Sektor
Do, 02.02. 12:00 18 3 50 270° W
Do, 02.02. 11:50 18 3 - 270° W
Do, 02.02. 11:40 20 4 - 280° W
Do, 02.02. 11:30 25 4 50 280° W
Do, 02.02. 11:20 25 4 - 280° W
Do, 02.02. 11:10 29 5 - 280° W
Do, 02.02. 11:00 24 4 46 280° W
Do, 02.02. 10:30 28 4 46 280° W
Do, 02.02. 10:00 18 3 47 280° W
Do, 02.02. 9:30 20 4 46 270° W
Do, 02.02. 9:00 24 4 43 270° W
Ortszeit Untergrenze Bedeckung Gattung
total tief tief mittel hoch
Do, 02.02. 7:00 570 m 8/8 8/8 - - -
Do, 02.02. 1:00 810 m 8/8 8/8 - - -
Mi, 01.02. 19:00 1080 m 8/8 8/8 - - -
Mi, 01.02. 13:00 960 m 8/8 8/8 - - -
Mi, 01.02. 7:00 750 m 8/8 8/8 - - -
Mi, 01.02. 1:00 510 m 8/8 8/8 - - -
Di, 31.01. 19:00 810 m 8/8 8/8 - - -
Di, 31.01. 13:00 750 m 8/8 8/8 - - -
Ortszeit Bedeckungsgrad in Achtel und Wolkenuntergrenze
Do, 02.02. 12:00 7(600m)
Do, 02.02. 11:50 7(600m)
Do, 02.02. 11:40 7
Do, 02.02. 11:30 7(540m)
Do, 02.02. 11:20 7(540m)
Do, 02.02. 11:10 7
Do, 02.02. 11:00 7(540m)
Do, 02.02. 10:30 7(600m)
Do, 02.02. 10:00 6(720m) 8(1350m) 8(4200m)
Do, 02.02. 9:30 7(1500m) 8(3000m) 8(3900m)
Do, 02.02. 9:00 3(630m) 7(1380m) 8(1500m)
Ortszeit Luftdruck NN (hPa) Tendenz (hPa in 3 Std.)
Do, 02.02. 7:00 1025 + 0,8
Do, 02.02. 1:00 1024 - 0,2
Mi, 01.02. 19:00 1024 + 0,6
Mi, 01.02. 13:00 1024 0,0
Mi, 01.02. 7:00 1024 - 0,5
Mi, 01.02. 1:00 1025 - 0,7
Di, 31.01. 19:00 1026 + 0,4
Di, 31.01. 13:00 1028 - 1,0
Ortszeit Luftdruck NN (hPa) Tendenz (hPa in 3 Std.)
Do, 02.02. 12:00 1027 + 1,4
Do, 02.02. 11:50 1027 keine Meldung
Do, 02.02. 11:40 1027 keine Meldung
Do, 02.02. 11:30 1027 + 1,4
Do, 02.02. 11:20 1027 keine Meldung
Do, 02.02. 11:10 1027 keine Meldung
Do, 02.02. 11:00 1027 + 1,2
Do, 02.02. 10:30 1026 + 1,3
Do, 02.02. 10:00 1026 + 1,3
Do, 02.02. 9:30 1026 + 0,6
Do, 02.02. 9:00 1026 + 0,7
Ortszeit Schneehöhe (cm)
Do, 02.02. 7:00 0
Do, 02.02. 1:00 0
Mi, 01.02. 19:00 0
Mi, 01.02. 13:00 0
Mi, 01.02. 7:00 0
Mi, 01.02. 1:00 0
Di, 31.01. 19:00 0
Di, 31.01. 13:00 0
Ortszeit Schneehöhe (cm)
Do, 02.02. 12:00 0
Do, 02.02. 11:50 0
Do, 02.02. 11:40 0
Do, 02.02. 11:30 0
Do, 02.02. 11:20 0
Do, 02.02. 11:10 0
Do, 02.02. 11:00 0
Do, 02.02. 10:30 0
Do, 02.02. 10:00 0
Do, 02.02. 9:30 0
Do, 02.02. 9:00 0
Link zu dieser Seite / Seite empfehlen

Das Wetter in ...